首页
METAR-TAF:

METAR-TAF

机场 :

Area_Regional_Airport

South Haven, 密歇根州, 美国

纬度: 42-21-03N, 经度: 086-15-22W, 海拔: 203米

当前天气观测

该预报发布于5分钟前的20:56 UTC
风速10节,风向西,有时为16节阵风
温度 21°C
湿度 64%
气压 1016 hPa
能見度: 16.1公里
天空无云

METAR: KLWA 232056Z AUTO 26010G16KT 10SM CLR 21/14 A2999 RMK AO2 T02110143

时间: 17:01 (21:01 UTC)


TAF: 丢失

超过4000个机场的气象观测和天气预报(METAR&TAF报告)。

可查询的气象台以黄色和红色小点在地图上表示。

将鼠标移到小点上方,可查看气象台名称。

然后点击查看天气观测和预报。

如需切换地图:点击带黑十字的绿色按钮放大地图;点击带横线的绿色按钮缩小地图;或者点击绿色箭头查看邻近地区的地图。


METAR-TAF: